Time;durP1;ratioP1;P1;durP2;ratioP2;P2;SDS_P1;SDS_P2;PMS_P1;PMS_P2;Temp;Humidity;BMP_temperature;BMP_pressure;BME280_temperature;BME280_humidity;BME280_pressure;Samples;Min_cycle;Max_cycle;Signal;HPM_P1;HPM_P2
2022/05/30 00:02:33;;;;;;;5.53;3.72;;;11.50;99.90;;;;;;5105247;28;20093;-49
2022/05/30 00:05:19;;;;;;;5.88;4.20;;;11.50;99.90;;;;;;5119329;27;20069;-53
2022/05/30 00:08:04;;;;;;;5.57;4.10;;;11.60;99.90;;;;;;5120983;27;20072;-53
2022/05/30 00:10:47;;;;;;;4.87;3.87;;;11.50;99.90;;;;;;5093738;28;20047;-53
2022/05/30 00:13:32;;;;;;;10.05;3.88;;;11.50;99.90;;;;;;5094428;28;20910;-53
2022/05/30 00:16:22;;;;;;;7.47;4.33;;;11.60;99.90;;;;;;5093169;28;20035;-53
2022/05/30 00:19:06;;;;;;;6.28;3.80;;;11.60;99.90;;;;;;5093542;28;20032;-49
2022/05/30 00:21:52;;;;;;;6.27;4.50;;;11.50;99.90;;;;;;5077480;28;20059;-51
2022/05/30 00:24:37;;;;;;;6.40;4.35;;;11.50;99.90;;;;;;5094109;28;20054;-53
2022/05/30 00:27:21;;;;;;;8.07;4.10;;;11.50;99.90;;;;;;5091969;28;20443;-51
2022/05/30 00:30:06;;;;;;;4.93;4.13;;;11.50;99.90;;;;;;5092533;28;20074;-49
2022/05/30 00:32:50;;;;;;;7.22;4.18;;;11.60;99.90;;;;;;5092765;28;20292;-50
2022/05/30 00:35:34;;;;;;;9.07;4.40;;;11.50;99.90;;;;;;5092483;28;20109;-49
2022/05/30 00:38:18;;;;;;;5.97;4.07;;;11.50;99.90;;;;;;5092273;28;20031;-49
2022/05/30 00:41:03;;;;;;;6.57;3.87;;;11.60;99.90;;;;;;5092412;28;20026;-49
2022/05/30 00:43:48;;;;;;;7.07;4.07;;;11.70;99.90;;;;;;5123768;27;20294;-50
2022/05/30 00:46:32;;;;;;;5.05;4.00;;;11.90;99.90;;;;;;5116443;27;20085;-48
2022/05/30 00:49:16;;;;;;;7.38;4.35;;;11.80;99.90;;;;;;5112793;28;20695;-49
2022/05/30 00:52:07;;;;;;;8.25;4.75;;;11.80;99.90;;;;;;5112922;28;20427;-50
2022/05/30 00:55:20;;;;;;;6.82;4.10;;;11.70;99.90;;;;;;5112299;28;20047;-51
2022/05/30 00:58:06;;;;;;;6.50;4.70;;;11.50;99.90;;;;;;5112235;28;20170;-50
2022/05/30 01:00:50;;;;;;;12.52;5.07;;;11.60;99.90;;;;;;5112234;28;20083;-55
2022/05/30 01:06:40;;;;;;;6.15;4.35;;;11.60;99.90;;;;;;5111238;28;20038;-50
2022/05/30 01:09:31;;;;;;;6.88;4.60;;;11.60;99.90;;;;;;5111288;28;20062;-50
2022/05/30 01:12:15;;;;;;;7.57;4.35;;;11.30;99.90;;;;;;5113001;28;20505;-50
2022/05/30 01:14:59;;;;;;;6.00;4.43;;;11.30;99.90;;;;;;5111724;28;20104;-50
2022/05/30 01:18:04;;;;;;;8.47;5.23;;;11.30;99.90;;;;;;5112129;28;20367;-51
2022/05/30 01:21:46;;;;;;;9.18;4.97;;;11.30;99.90;;;;;;5112355;28;20026;-53
2022/05/30 01:24:49;;;;;;;7.07;4.65;;;11.40;99.90;;;;;;5112373;28;20115;-49
2022/05/30 01:28:05;;;;;;;5.47;4.38;;;11.40;99.90;;;;;;5111972;28;20074;-50
2022/05/30 01:30:49;;;;;;;5.72;4.13;;;11.40;99.90;;;;;;5112082;28;20027;-51
2022/05/30 01:33:34;;;;;;;5.53;4.67;;;11.50;99.90;;;;;;5111589;28;20590;-51
2022/05/30 01:36:28;;;;;;;6.63;4.78;;;11.50;99.90;;;;;;5110792;28;20282;-51
2022/05/30 01:39:13;;;;;;;8.02;4.97;;;11.50;99.90;;;;;;5111911;28;20039;-52
2022/05/30 01:41:57;;;;;;;6.85;5.07;;;11.40;99.90;;;;;;5111744;28;20387;-49
2022/05/30 01:44:42;;;;;;;6.22;5.55;;;11.30;99.90;;;;;;5111494;28;20054;-50
2022/05/30 01:47:26;;;;;;;6.95;5.63;;;11.30;99.90;;;;;;5104915;28;20058;-48
2022/05/30 01:50:11;;;;;;;8.65;6.20;;;11.10;99.90;;;;;;5111831;28;20078;-50
2022/05/30 01:52:56;;;;;;;8.55;7.13;;;10.90;99.90;;;;;;5111904;28;20031;-53
2022/05/30 01:55:40;;;;;;;;;;;11.10;99.90;;;;;;5111384;28;20493;-51
2022/05/30 01:58:25;;;;;;;9.48;5.75;;;11.20;99.90;;;;;;5111613;28;20329;-51
2022/05/30 02:01:21;;;;;;;7.63;6.13;;;11.20;99.90;;;;;;5111533;28;20034;-49
2022/05/30 02:04:06;;;;;;;12.63;6.70;;;11.20;99.90;;;;;;5110762;28;20070;-49
2022/05/30 02:06:50;;;;;;;8.98;7.35;;;11.10;99.90;;;;;;5111165;28;20509;-50
2022/05/30 02:09:35;;;;;;;7.55;6.75;;;10.80;99.90;;;;;;5110396;28;20557;-48
2022/05/30 02:12:19;;;;;;;10.53;8.40;;;10.90;99.90;;;;;;5111969;28;20043;-48
2022/05/30 02:15:04;;;;;;;12.57;8.57;;;11.00;99.90;;;;;;5111419;28;20047;-51
2022/05/30 02:17:48;;;;;;;15.88;9.90;;;10.90;99.90;;;;;;5110991;28;20089;-49
2022/05/30 02:20:32;;;;;;;12.52;9.20;;;10.80;99.90;;;;;;5111428;28;20031;-51
2022/05/30 02:23:17;;;;;;;11.77;9.07;;;10.80;99.90;;;;;;5111557;28;20497;-49
2022/05/30 02:26:01;;;;;;;;;;;10.80;99.90;;;;;;5111250;28;20090;-51
2022/05/30 02:28:45;;;;;;;12.55;9.82;;;10.90;99.90;;;;;;5115567;28;19972;-49
2022/05/30 02:31:30;;;;;;;14.00;10.65;;;10.80;99.90;;;;;;5115645;28;20050;-48
2022/05/30 02:37:17;;;;;;;15.05;10.18;;;10.90;99.90;;;;;;5114198;28;20116;-50
2022/05/30 02:40:02;;;;;;;17.90;10.43;;;10.90;99.90;;;;;;5115821;28;20536;-52
2022/05/30 02:42:46;;;;;;;13.75;10.35;;;10.90;99.90;;;;;;5115238;28;20073;-49
2022/05/30 02:45:31;;;;;;;17.25;10.00;;;10.80;99.90;;;;;;5114678;28;20439;-53
2022/05/30 02:48:15;;;;;;;14.82;10.88;;;10.70;99.90;;;;;;5115591;28;20070;-50
2022/05/30 02:50:59;;;;;;;16.73;10.82;;;10.80;99.90;;;;;;5115234;28;20038;-48
2022/05/30 02:53:43;;;;;;;15.85;10.27;;;10.80;99.90;;;;;;5114344;28;20093;-49
2022/05/30 02:56:27;;;;;;;13.95;10.15;;;10.80;99.90;;;;;;5114482;28;20034;-49
2022/05/30 02:59:11;;;;;;;15.32;10.55;;;10.80;99.90;;;;;;5114112;28;20035;-50
2022/05/30 03:01:55;;;;;;;19.63;11.32;;;10.80;99.90;;;;;;5113697;28;20026;-51
2022/05/30 03:04:39;;;;;;;13.55;10.18;;;10.70;99.90;;;;;;5114407;28;20081;-48
2022/05/30 03:07:23;;;;;;;13.88;10.50;;;10.80;99.90;;;;;;5114081;28;20062;-48
2022/05/30 03:10:08;;;;;;;14.07;10.13;;;10.80;99.90;;;;;;5114308;28;20066;-49
2022/05/30 03:12:52;;;;;;;14.27;9.95;;;10.80;99.90;;;;;;5114338;28;20570;-52
2022/05/30 03:15:36;;;;;;;14.57;9.80;;;10.90;99.90;;;;;;5114019;28;20042;-48
2022/05/30 03:18:20;;;;;;;14.00;10.05;;;10.90;99.90;;;;;;5114192;28;20517;-49
2022/05/30 03:21:05;;;;;;;19.20;9.77;;;10.80;99.90;;;;;;5113599;28;20054;-49
2022/05/30 03:23:50;;;;;;;13.02;9.95;;;10.80;99.90;;;;;;5114506;28;20035;-50
2022/05/30 03:26:34;;;;;;;;;;;10.80;99.90;;;;;;5116691;27;20077;-49
2022/05/30 03:29:18;;;;;;;13.93;8.98;;;10.50;99.90;;;;;;5126642;27;19965;-48
2022/05/30 03:32:02;;;;;;;16.63;8.13;;;10.60;99.90;;;;;;5119858;27;20081;-53
2022/05/30 03:34:46;;;;;;;11.70;8.48;;;10.40;99.90;;;;;;5134343;27;20073;-49
2022/05/30 03:37:34;;;;;;;15.50;8.40;;;10.50;99.90;;;;;;5133359;27;20504;-52
2022/05/30 03:40:18;;;;;;;12.43;8.27;;;10.60;99.90;;;;;;5134883;27;20035;-48
2022/05/30 03:43:09;;;;;;;11.53;7.90;;;10.40;99.90;;;;;;5134932;27;20030;-48
2022/05/30 03:45:53;;;;;;;10.65;7.90;;;10.40;99.90;;;;;;5112116;28;20097;-49
2022/05/30 03:48:37;;;;;;;12.98;7.68;;;10.40;99.90;;;;;;5117109;28;20047;-53
2022/05/30 03:51:22;;;;;;;12.90;7.75;;;10.50;99.90;;;;;;5115224;28;20078;-52
2022/05/30 03:54:06;;;;;;;13.30;7.07;;;10.50;99.90;;;;;;5113972;28;20146;-52
2022/05/30 03:56:50;;;;;;;17.10;7.65;;;10.40;99.90;;;;;;5113380;28;20881;-50
2022/05/30 03:59:34;;;;;;;11.37;7.60;;;10.50;99.90;;;;;;5112800;28;20039;-52
2022/05/30 04:02:18;;;;;;;12.70;7.72;;;10.50;99.90;;;;;;5122235;27;20355;-48
2022/05/30 04:05:03;;;;;;;16.30;7.50;;;10.60;99.90;;;;;;5124661;27;20082;-50
2022/05/30 04:07:47;;;;;;;13.77;7.38;;;10.60;99.90;;;;;;5106654;28;20077;-50
2022/05/30 04:10:31;;;;;;;15.52;6.90;;;10.60;99.90;;;;;;5113851;28;20070;-50
2022/05/30 04:13:15;;;;;;;14.60;7.67;;;10.70;99.90;;;;;;5098279;28;20031;-50
2022/05/30 04:16:08;;;;;;;16.63;7.78;;;10.70;99.90;;;;;;5113040;28;20038;-49
2022/05/30 04:18:52;;;;;;;16.48;8.70;;;10.50;99.90;;;;;;5113239;28;20026;-52
2022/05/30 04:21:37;;;;;;;13.90;8.30;;;10.60;99.90;;;;;;5113246;28;20062;-49
2022/05/30 04:24:21;;;;;;;11.73;7.35;;;10.60;99.90;;;;;;5113185;28;20042;-50
2022/05/30 04:27:05;;;;;;;13.40;7.70;;;10.60;99.90;;;;;;5083179;28;20043;-50
2022/05/30 04:29:50;;;;;;;13.10;8.10;;;10.60;99.90;;;;;;5099029;28;20261;-50
2022/05/30 04:32:36;;;;;;;15.15;8.25;;;10.60;99.90;;;;;;5114328;28;20082;-50
2022/05/30 04:35:20;;;;;;;17.23;9.93;;;10.80;99.90;;;;;;5113396;28;20026;-48
2022/05/30 04:38:04;;;;;;;13.73;9.03;;;10.70;99.90;;;;;;5113013;28;20070;-54
2022/05/30 04:40:48;;;;;;;17.80;10.07;;;10.60;99.90;;;;;;5113720;27;20273;-50
2022/05/30 04:43:32;;;;;;;17.93;9.53;;;10.70;99.90;;;;;;5133475;27;20073;-49
2022/05/30 04:46:19;;;;;;;16.95;10.90;;;10.70;99.90;;;;;;5119580;27;20288;-52
2022/05/30 04:49:04;;;;;;;17.08;10.10;;;10.60;99.90;;;;;;5111796;27;20057;-50
2022/05/30 04:51:49;;;;;;;14.63;10.07;;;10.80;99.90;;;;;;5119959;27;20039;-51
2022/05/30 04:54:34;;;;;;;16.38;9.43;;;10.80;99.90;;;;;;5121228;27;20061;-51
2022/05/30 04:57:18;;;;;;;18.15;10.60;;;10.80;99.90;;;;;;5114427;27;20046;-49
2022/05/30 05:00:05;;;;;;;17.83;10.82;;;10.70;99.90;;;;;;5112600;28;20055;-50
2022/05/30 05:02:52;;;;;;;16.50;11.27;;;10.60;99.90;;;;;;5111314;27;20059;-51
2022/05/30 05:05:36;;;;;;;20.42;11.43;;;10.50;99.90;;;;;;5123989;27;20083;-50
2022/05/30 05:08:27;;;;;;;14.97;10.00;;;10.50;99.90;;;;;;5117833;27;20030;-49
2022/05/30 05:11:22;;;;;;;13.10;9.80;;;10.60;99.90;;;;;;5131941;27;20093;-50
2022/05/30 05:14:06;;;;;;;;;;;10.60;99.90;;;;;;5133527;27;20073;-50
2022/05/30 05:16:51;;;;;;;17.27;10.27;;;10.50;99.90;;;;;;5124096;27;20448;-53
2022/05/30 05:19:36;;;;;;;18.02;9.88;;;10.50;99.90;;;;;;5120386;27;20150;-53
2022/05/30 05:22:21;;;;;;;20.25;10.10;;;10.50;99.90;;;;;;5109381;27;20038;-56
2022/05/30 05:25:05;;;;;;;16.02;9.90;;;10.40;99.90;;;;;;5120834;27;20054;-49
2022/05/30 05:27:50;;;;;;;;;;;10.40;99.90;;;;;;5112855;28;20085;-52
2022/05/30 05:30:34;;;;;;;15.93;10.10;;;10.40;99.90;;;;;;5112535;28;19914;-51
2022/05/30 05:33:18;;;;;;;15.95;9.70;;;10.40;99.90;;;;;;5082544;28;20054;-52
2022/05/30 05:36:03;;;;;;;16.50;10.43;;;10.50;99.90;;;;;;5111373;28;20039;-49
2022/05/30 05:38:51;;;;;;;19.20;11.05;;;10.60;99.90;;;;;;5109528;28;20399;-48
2022/05/30 05:41:36;;;;;;;13.80;9.38;;;10.70;99.90;;;;;;5111068;27;20039;-48
2022/05/30 05:44:21;;;;;;;16.60;8.63;;;10.50;99.90;;;;;;5112185;28;20097;-53
2022/05/30 05:47:06;;;;;;;13.77;8.25;;;10.40;99.90;;;;;;5111185;28;20509;-49
2022/05/30 05:49:50;;;;;;;16.25;7.63;;;10.50;99.90;;;;;;5112214;28;20042;-52
2022/05/30 05:52:34;;;;;;;11.47;7.87;;;10.60;99.90;;;;;;5112755;28;20098;-48
2022/05/30 05:55:19;;;;;;;16.83;7.88;;;10.70;99.90;;;;;;5112215;28;20042;-51
2022/05/30 05:58:03;;;;;;;15.27;7.88;;;10.80;99.90;;;;;;5112865;28;20081;-51
2022/05/30 06:00:48;;;;;;;16.42;7.43;;;11.00;99.90;;;;;;5117083;27;20123;-50
2022/05/30 06:03:31;;;;;;;18.52;7.95;;;11.10;99.90;;;;;;5125714;27;20081;-51
2022/05/30 06:06:16;;;;;;;19.15;8.77;;;10.90;99.90;;;;;;5116745;28;20042;-49
2022/05/30 06:09:01;;;;;;;16.67;7.63;;;10.90;99.90;;;;;;5117732;28;20034;-51
2022/05/30 06:11:45;;;;;;;18.92;8.23;;;11.10;99.90;;;;;;5118047;28;20453;-54
2022/05/30 06:14:29;;;;;;;13.23;7.10;;;11.10;99.90;;;;;;5116808;28;20031;-56
2022/05/30 06:17:13;;;;;;;12.83;7.50;;;11.00;99.90;;;;;;5116050;28;20676;-50
2022/05/30 06:19:57;;;;;;;18.17;7.63;;;11.10;99.90;;;;;;5116624;28;20027;-51
2022/05/30 06:22:41;;;;;;;14.88;7.10;;;11.30;99.90;;;;;;5117004;28;20749;-48
2022/05/30 06:25:25;;;;;;;14.23;8.02;;;11.30;99.90;;;;;;5116323;28;20031;-56
2022/05/30 06:28:09;;;;;;;15.27;8.47;;;11.30;99.90;;;;;;5115896;28;20387;-48
2022/05/30 06:30:53;;;;;;;18.35;8.45;;;11.30;99.90;;;;;;5116572;28;20332;-47
2022/05/30 06:33:37;;;;;;;16.53;7.80;;;11.30;99.90;;;;;;5116113;28;20035;-53
2022/05/30 06:36:24;;;;;;;13.70;7.13;;;11.30;99.90;;;;;;5115642;28;20038;-52
2022/05/30 06:39:10;;;;;;;13.98;7.38;;;11.30;99.90;;;;;;5116287;28;20039;-53
2022/05/30 06:41:55;;;;;;;12.52;6.30;;;11.50;99.90;;;;;;5115771;28;20027;-47
2022/05/30 06:44:39;;;;;;;13.00;6.93;;;11.60;99.90;;;;;;5108053;27;20089;-52
2022/05/30 06:47:24;;;;;;;;;;;11.60;99.90;;;;;;5111968;27;20074;-49
2022/05/30 06:50:09;;;;;;;13.45;7.68;;;11.50;99.90;;;;;;5118629;27;19930;-54
2022/05/30 06:52:53;;;;;;;;;;;11.70;99.90;;;;;;5112867;28;20070;-47
2022/05/30 06:55:37;;;;;;;25.00;8.60;;;11.60;99.90;;;;;;5104477;28;19969;-48
2022/05/30 06:58:21;;;;;;;19.07;7.97;;;11.50;99.90;;;;;;5107928;28;20121;-47
2022/05/30 07:01:05;;;;;;;18.80;8.18;;;11.60;99.90;;;;;;5123283;27;20091;-51
2022/05/30 07:03:50;;;;;;;13.97;9.07;;;11.50;99.90;;;;;;5103874;28;20108;-53
2022/05/30 07:06:34;;;;;;;24.10;9.75;;;11.40;99.90;;;;;;5109648;28;20066;-48
2022/05/30 07:09:19;;;;;;;19.92;8.88;;;11.50;99.90;;;;;;5123602;27;20034;-50
2022/05/30 07:12:05;;;;;;;21.52;10.60;;;11.50;99.90;;;;;;5113332;28;20508;-51
2022/05/30 07:14:50;;;;;;;20.30;10.35;;;11.40;99.90;;;;;;5112218;28;20036;-52
2022/05/30 07:17:35;;;;;;;;;;;11.50;99.90;;;;;;5107729;28;20386;-52
2022/05/30 07:20:19;;;;;;;18.98;10.02;;;11.60;99.90;;;;;;5107620;27;19916;-50
2022/05/30 07:23:04;;;;;;;18.92;8.82;;;11.70;99.90;;;;;;5104524;27;20457;-49
2022/05/30 07:25:48;;;;;;;17.83;9.07;;;11.80;99.90;;;;;;5115754;27;20037;-48
2022/05/30 07:28:33;;;;;;;13.93;8.82;;;11.70;99.90;;;;;;5118707;27;20119;-47
2022/05/30 07:31:20;;;;;;;19.88;9.35;;;11.90;99.90;;;;;;5116535;27;20124;-48
2022/05/30 07:34:05;;;;;;;19.67;10.30;;;12.00;99.90;;;;;;5112321;27;20114;-49
2022/05/30 07:36:49;;;;;;;30.97;9.10;;;12.10;99.90;;;;;;5098570;27;20108;-47
2022/05/30 07:39:36;;;;;;;20.30;8.70;;;12.20;99.90;;;;;;5111022;28;20082;-48
2022/05/30 07:42:21;;;;;;;15.52;8.43;;;12.40;99.90;;;;;;5111908;28;20030;-49
2022/05/30 07:45:05;;;;;;;14.10;8.50;;;12.40;99.90;;;;;;5112993;28;20089;-49
2022/05/30 07:47:49;;;;;;;22.50;10.75;;;12.30;99.90;;;;;;5110821;28;20058;-46
2022/05/30 07:50:35;;;;;;;13.27;9.20;;;12.50;99.90;;;;;;5115180;27;20038;-49
2022/05/30 07:53:19;;;;;;;14.35;8.88;;;12.50;99.90;;;;;;5119905;27;20026;-48
2022/05/30 07:56:09;;;;;;;19.00;8.73;;;12.60;99.90;;;;;;5128146;27;20022;-53
2022/05/30 07:58:53;;;;;;;13.38;8.48;;;12.70;99.90;;;;;;5110615;28;20074;-50
2022/05/30 08:01:38;;;;;;;12.30;7.32;;;12.60;99.90;;;;;;5113122;27;20038;-53
2022/05/30 08:04:22;;;;;;;13.40;7.87;;;12.50;99.90;;;;;;5099189;27;20071;-53
2022/05/30 08:07:06;;;;;;;15.20;7.00;;;12.60;99.90;;;;;;5110029;27;20047;-53
2022/05/30 08:09:50;;;;;;;14.57;6.87;;;12.60;99.90;;;;;;5114819;27;20038;-55
2022/05/30 08:12:35;;;;;;;17.53;6.83;;;12.70;99.40;;;;;;5111714;28;20047;-54
2022/05/30 08:15:22;;;;;;;22.40;6.97;;;13.00;99.00;;;;;;5110106;28;20257;-50
2022/05/30 08:18:13;;;;;;;16.27;6.43;;;13.20;98.50;;;;;;5114639;27;20074;-51
2022/05/30 08:20:58;;;;;;;12.18;6.00;;;13.40;97.90;;;;;;5111173;28;20031;-52
2022/05/30 08:23:42;;;;;;;17.92;5.47;;;13.40;97.90;;;;;;5111788;28;20045;-50
2022/05/30 08:26:26;;;;;;;12.73;5.07;;;13.80;97.40;;;;;;5096361;27;20035;-49
2022/05/30 08:29:10;;;;;;;14.60;6.20;;;14.10;96.60;;;;;;5095346;28;20034;-50
2022/05/30 08:31:55;;;;;;;11.52;4.97;;;14.30;96.70;;;;;;5111903;28;20050;-49
2022/05/30 08:34:42;;;;;;;12.30;5.50;;;14.40;96.60;;;;;;5109270;28;20544;-48
2022/05/30 08:37:30;;;;;;;9.82;4.70;;;14.20;96.70;;;;;;5110627;27;20034;-53
2022/05/30 08:43:35;;;;;;;11.68;5.10;;;14.10;95.00;;;;;;5113152;27;21343;-52
2022/05/30 08:46:52;;;;;;;10.13;4.55;;;14.10;95.50;;;;;;5109515;28;20061;-52
2022/05/30 08:49:49;;;;;;;9.43;4.03;;;14.10;95.50;;;;;;5110310;27;20394;-54
2022/05/30 08:52:43;;;;;;;9.88;4.28;;;14.20;95.30;;;;;;5094837;28;20728;-50
2022/05/30 08:55:54;;;;;;;8.23;4.85;;;14.50;94.70;;;;;;5113353;27;20042;-50
2022/05/30 08:59:12;;;;;;;9.95;3.78;;;14.60;94.10;;;;;;5112591;27;20034;-49
2022/05/30 09:02:20;;;;;;;7.60;3.80;;;14.50;93.40;;;;;;5122278;27;20106;-52
2022/05/30 09:05:14;;;;;;;7.93;3.72;;;14.40;94.20;;;;;;5112222;27;20124;-53
2022/05/30 09:08:04;;;;;;;8.80;3.77;;;14.50;94.60;;;;;;5114595;27;20088;-51
2022/05/30 09:10:59;;;;;;;9.05;3.72;;;14.60;93.70;;;;;;5091850;28;20334;-51
2022/05/30 09:13:48;;;;;;;11.23;4.00;;;14.70;93.10;;;;;;5091990;28;20062;-50
2022/05/30 09:16:37;;;;;;;7.80;3.35;;;15.00;93.10;;;;;;5076289;28;20558;-53
2022/05/30 09:19:24;;;;;;;7.63;3.55;;;15.10;92.70;;;;;;5092839;28;20031;-50
2022/05/30 09:22:09;;;;;;;7.20;4.00;;;15.10;93.00;;;;;;5112302;28;20077;-54
2022/05/30 09:27:56;;;;;;;6.65;4.47;;;15.50;92.20;;;;;;5102598;28;20097;-50
2022/05/30 09:30:49;;;;;;;7.70;4.10;;;15.40;92.20;;;;;;5112403;28;20144;-48
2022/05/30 09:33:39;;;;;;;5.45;3.78;;;15.10;92.20;;;;;;5109003;28;20082;-54
2022/05/30 09:36:28;;;;;;;8.63;4.13;;;15.00;92.70;;;;;;5111807;27;20146;-48
2022/05/30 09:39:18;;;;;;;6.43;3.88;;;14.90;93.10;;;;;;5110199;28;20035;-49
2022/05/30 09:42:02;;;;;;;8.02;4.30;;;15.00;92.90;;;;;;5113067;27;20450;-51
2022/05/30 09:44:51;;;;;;;9.82;4.40;;;14.90;93.00;;;;;;5117614;27;20038;-54
2022/05/30 09:47:36;;;;;;;7.10;4.07;;;14.80;93.00;;;;;;5120821;27;20026;-50
2022/05/30 09:50:21;;;;;;;11.45;5.30;;;14.50;93.70;;;;;;5110260;28;20682;-50
2022/05/30 09:53:06;;;;;;;13.85;4.78;;;14.30;94.10;;;;;;5112017;28;20046;-52
2022/05/30 09:55:51;;;;;;;7.68;4.20;;;14.10;94.40;;;;;;5111311;28;20128;-53
2022/05/30 09:58:45;;;;;;;9.55;4.05;;;13.90;93.90;;;;;;5111958;28;20540;-49
2022/05/30 10:01:33;;;;;;;13.13;4.43;;;13.80;94.70;;;;;;5111853;28;20055;-50
2022/05/30 10:04:35;;;;;;;10.57;4.32;;;14.00;95.00;;;;;;5111154;28;20123;-51
2022/05/30 10:07:20;;;;;;;11.13;4.53;;;14.20;94.30;;;;;;5124707;27;20026;-53
2022/05/30 10:10:48;;;;;;;13.88;4.70;;;14.30;93.60;;;;;;5112396;28;20035;-50
2022/05/30 10:13:40;;;;;;;7.78;4.90;;;14.50;93.30;;;;;;5070109;28;20579;-52
2022/05/30 10:16:34;;;;;;;8.70;4.20;;;14.40;93.70;;;;;;5052860;28;20087;-54
2022/05/30 10:19:30;;;;;;;5.97;4.43;;;14.60;93.30;;;;;;5118861;27;20037;-52
2022/05/30 10:29:48;;;;;;;8.48;4.30;;;15.00;91.90;;;;;;5092003;28;20116;-52
2022/05/30 10:33:05;;;;;;;6.60;3.97;;;14.80;92.20;;;;;;5094915;28;20547;-53
2022/05/30 10:36:08;;;;;;;7.93;4.15;;;15.00;92.30;;;;;;5109293;28;20027;-51
2022/05/30 10:39:25;;;;;;;9.95;4.80;;;15.20;91.60;;;;;;5108251;28;20043;-50
2022/05/30 10:42:27;;;;;;;9.25;4.70;;;14.90;91.70;;;;;;5110680;28;20023;-52
2022/05/30 10:45:28;;;;;;;10.73;4.50;;;14.60;91.30;;;;;;5117508;28;20042;-53
2022/05/30 10:48:33;;;;;;;9.70;3.85;;;14.60;91.30;;;;;;5115560;27;20038;-51
2022/05/30 10:51:26;;;;;;;5.28;3.80;;;13.90;91.90;;;;;;5114735;27;20050;-55
2022/05/30 10:54:23;;;;;;;6.70;3.55;;;13.80;92.20;;;;;;5108652;28;20027;-50
2022/05/30 10:57:28;;;;;;;6.95;3.65;;;14.00;92.00;;;;;;5112530;28;20099;-52
2022/05/30 11:00:16;;;;;;;5.45;3.63;;;14.00;92.10;;;;;;5111601;28;20026;-51
2022/05/30 11:03:25;;;;;;;8.48;4.38;;;13.90;92.80;;;;;;5113078;28;20390;-59
2022/05/30 11:06:21;;;;;;;8.00;4.82;;;14.10;94.00;;;;;;5113183;28;20082;-52
2022/05/30 11:09:17;;;;;;;7.53;4.68;;;13.80;95.10;;;;;;5118803;27;20022;-49
2022/05/30 11:12:25;;;;;;;9.23;5.22;;;13.50;96.00;;;;;;5118556;27;20014;-49
2022/05/30 11:15:39;;;;;;;8.57;4.45;;;13.60;95.80;;;;;;5128938;27;20034;-50
2022/05/30 11:18:37;;;;;;;6.75;4.20;;;13.90;95.90;;;;;;5113622;27;20484;-52
2022/05/30 11:21:40;;;;;;;6.15;4.00;;;14.10;95.60;;;;;;5115626;27;20022;-50
2022/05/30 11:24:25;;;;;;;5.30;3.50;;;13.60;96.00;;;;;;5118227;27;20038;-50
2022/05/30 11:28:17;;;;;;;6.80;3.65;;;13.30;95.60;;;;;;5112708;28;20027;-52
2022/05/30 11:31:13;;;;;;;5.80;3.30;;;13.10;96.30;;;;;;5042853;28;20140;-54
2022/05/30 11:34:12;;;;;;;4.25;3.22;;;13.00;95.10;;;;;;5112868;28;20030;-57
2022/05/30 11:37:11;;;;;;;4.53;2.92;;;13.00;94.80;;;;;;5112581;27;20034;-53
2022/05/30 11:40:20;;;;;;;4.00;3.15;;;12.90;94.30;;;;;;5108018;28;20401;-52
2022/05/30 11:43:26;;;;;;;3.42;2.50;;;12.90;94.10;;;;;;5113166;27;20440;-54
2022/05/30 11:46:48;;;;;;;3.08;2.65;;;13.00;94.10;;;;;;5121602;27;20099;-56
2022/05/30 11:50:09;;;;;;;3.60;2.88;;;13.20;94.30;;;;;;5114265;28;20553;-56
2022/05/30 11:53:29;;;;;;;4.15;3.00;;;13.50;93.90;;;;;;5113617;28;20035;-55
2022/05/30 11:56:55;;;;;;;3.65;2.70;;;13.80;93.40;;;;;;5113369;28;20031;-57
2022/05/30 11:59:57;;;;;;;5.50;2.75;;;14.20;92.90;;;;;;5098293;28;20039;-54
2022/05/30 12:02:59;;;;;;;7.25;3.00;;;14.50;92.20;;;;;;5113580;28;20516;-55
2022/05/30 12:06:09;;;;;;;6.10;3.03;;;15.40;91.10;;;;;;5097367;28;20152;-54
2022/05/30 12:09:02;;;;;;;6.45;3.05;;;15.30;90.80;;;;;;5113924;28;20026;-52
2022/05/30 12:12:12;;;;;;;6.00;3.17;;;15.50;90.10;;;;;;5113413;28;20160;-55
2022/05/30 12:15:33;;;;;;;3.78;3.10;;;16.00;89.80;;;;;;5113459;28;20548;-52
2022/05/30 12:24:49;;;;;;;5.97;3.30;;;15.70;91.30;;;;;;5113275;28;20030;-56
2022/05/30 12:27:35;;;;;;;5.53;3.53;;;15.00;93.10;;;;;;5112917;28;20081;-55
2022/05/30 12:30:46;;;;;;;7.45;3.50;;;14.40;93.80;;;;;;5113957;28;20217;-52
2022/05/30 12:33:33;;;;;;;8.82;3.75;;;13.80;95.50;;;;;;5114808;28;20154;-53
2022/05/30 12:36:17;;;;;;;6.00;3.15;;;13.60;95.50;;;;;;5106525;28;20213;-53
2022/05/30 12:39:08;;;;;;;7.03;3.40;;;13.70;94.50;;;;;;5113416;28;20055;-54
2022/05/30 12:41:58;;;;;;;6.68;3.50;;;13.60;94.60;;;;;;5113877;28;20058;-55
2022/05/30 12:44:52;;;;;;;6.20;3.40;;;13.60;94.90;;;;;;5113038;28;20038;-56
2022/05/30 12:47:36;;;;;;;7.60;4.00;;;13.70;94.80;;;;;;5097814;28;20100;-56
2022/05/30 12:50:35;;;;;;;7.03;3.80;;;13.80;94.60;;;;;;5114140;28;20042;-56
2022/05/30 12:53:22;;;;;;;5.45;3.83;;;14.00;94.50;;;;;;5113350;28;20161;-55
2022/05/30 12:56:06;;;;;;;8.52;3.92;;;14.20;94.50;;;;;;5113298;28;20105;-55
2022/05/30 12:58:50;;;;;;;5.20;3.70;;;14.30;93.90;;;;;;5114132;28;20035;-55
2022/05/30 13:01:43;;;;;;;5.70;3.30;;;14.80;93.20;;;;;;5098104;28;20054;-52
2022/05/30 13:04:36;;;;;;;5.57;3.55;;;15.60;92.00;;;;;;5112984;28;20125;-56
2022/05/30 13:07:30;;;;;;;9.27;3.40;;;16.20;90.60;;;;;;5111964;28;20107;-54
2022/05/30 13:10:14;;;;;;;7.70;4.20;;;16.20;90.50;;;;;;5112363;28;20074;-52
2022/05/30 13:13:11;;;;;;;5.47;3.00;;;16.20;90.50;;;;;;5113030;28;20035;-53
2022/05/30 13:16:04;;;;;;;4.03;2.70;;;16.50;90.10;;;;;;5097096;28;20501;-52
2022/05/30 13:18:48;;;;;;;3.95;2.75;;;16.80;88.50;;;;;;5112550;28;20107;-51
2022/05/30 13:21:32;;;;;;;3.97;2.23;;;17.10;85.30;;;;;;5112838;28;20043;-56
2022/05/30 13:24:32;;;;;;;;;;;17.10;81.80;;;;;;5113127;28;20034;-53
2022/05/30 13:27:16;;;;;;;3.60;2.47;;;17.40;81.40;;;;;;5112403;28;19957;-54
2022/05/30 13:30:09;;;;;;;3.95;2.60;;;17.40;81.40;;;;;;5112487;28;20101;-53
2022/05/30 13:32:55;;;;;;;4.90;2.85;;;17.40;80.80;;;;;;5112244;28;20542;-55
2022/05/30 13:35:42;;;;;;;5.93;2.70;;;17.60;81.40;;;;;;5111875;28;20031;-55
2022/05/30 13:38:35;;;;;;;5.28;3.05;;;17.30;79.90;;;;;;5112248;28;20111;-56
2022/05/30 13:41:37;;;;;;;4.07;2.80;;;16.60;81.80;;;;;;5112258;28;20026;-53
2022/05/30 13:44:25;;;;;;;4.53;2.75;;;16.10;83.70;;;;;;5112134;28;20042;-51
2022/05/30 13:47:15;;;;;;;4.68;3.28;;;15.90;85.10;;;;;;5076046;28;20136;-52
2022/05/30 13:49:58;;;;;;;5.15;3.13;;;16.00;85.80;;;;;;5091263;28;20126;-57
2022/05/30 13:52:43;;;;;;;5.75;3.45;;;16.40;86.40;;;;;;5076430;28;20035;-54
2022/05/30 13:55:28;;;;;;;8.30;3.88;;;16.80;85.20;;;;;;5090914;28;20040;-56
2022/05/30 13:58:12;;;;;;;4.90;3.55;;;17.10;84.50;;;;;;5091637;28;20039;-55
2022/05/30 14:01:04;;;;;;;7.22;3.95;;;16.90;83.90;;;;;;5076445;28;20035;-53
2022/05/30 14:03:59;;;;;;;4.40;3.15;;;16.40;83.50;;;;;;5092083;28;20031;-54
2022/05/30 14:06:45;;;;;;;;;;;16.00;85.00;;;;;;5076147;28;20043;-56
2022/05/30 14:09:29;;;;;;;6.15;3.13;;;15.90;85.20;;;;;;5091753;28;19957;-58
2022/05/30 14:12:18;;;;;;;4.20;3.35;;;15.70;86.20;;;;;;5076691;28;20090;-52
2022/05/30 14:15:28;;;;;;;3.78;3.00;;;15.60;85.20;;;;;;5076252;28;20091;-56
2022/05/30 14:18:35;;;;;;;5.13;3.08;;;15.80;85.60;;;;;;5076305;28;20032;-52
2022/05/30 14:21:27;;;;;;;5.00;3.03;;;16.30;85.80;;;;;;5091915;28;20055;-56
2022/05/30 14:24:26;;;;;;;5.85;3.25;;;16.30;84.10;;;;;;5096259;28;20529;-56
2022/05/30 14:27:23;;;;;;;3.95;3.00;;;16.30;83.70;;;;;;5095856;28;20090;-53
2022/05/30 14:30:16;;;;;;;5.32;3.22;;;16.90;82.40;;;;;;5080647;28;20028;-55
2022/05/30 14:33:09;;;;;;;5.45;3.15;;;17.30;82.00;;;;;;5096010;28;20150;-55
2022/05/30 14:36:32;;;;;;;4.68;3.20;;;17.80;80.80;;;;;;5114100;28;20043;-55
2022/05/30 14:39:20;;;;;;;4.63;3.15;;;17.40;82.10;;;;;;5116417;28;20085;-56
2022/05/30 14:42:05;;;;;;;6.65;3.38;;;17.20;81.80;;;;;;5115447;27;20109;-55
2022/05/30 14:44:57;;;;;;;6.03;2.90;;;17.40;82.20;;;;;;5134708;27;20037;-55
2022/05/30 14:47:48;;;;;;;5.00;3.13;;;17.50;83.70;;;;;;5114926;28;20031;-55
2022/05/30 14:50:50;;;;;;;5.18;3.00;;;17.70;83.10;;;;;;5113211;28;20066;-56
2022/05/30 14:53:38;;;;;;;4.97;3.00;;;17.60;82.00;;;;;;5113891;28;20062;-55
2022/05/30 14:56:25;;;;;;;6.35;3.00;;;17.60;82.30;;;;;;5115032;28;20027;-56
2022/05/30 14:59:33;;;;;;;7.15;3.38;;;17.20;83.10;;;;;;5115127;28;20160;-54
2022/05/30 15:05:22;;;;;;;6.18;3.25;;;16.90;83.80;;;;;;5114367;28;20035;-52
2022/05/30 15:08:07;;;;;;;5.93;3.22;;;16.80;84.40;;;;;;5114823;28;20097;-55
2022/05/30 15:10:52;;;;;;;5.65;3.10;;;17.10;82.50;;;;;;5114819;28;20422;-55